Time;durP1;ratioP1;P1;durP2;ratioP2;P2;SDS_P1;SDS_P2;PMS_P1;PMS_P2;Temp;Humidity;BMP_temperature;BMP_pressure;BME280_temperature;BME280_humidity;BME280_pressure;Samples;Min_cycle;Max_cycle;Signal;HPM_P1;HPM_P2
2023/05/25 00:03:29;;;;;;;12.63;3.15;;;;;;;9.65;62.91;98383.72;10482421;28;20131;-71
2023/05/25 00:08:54;;;;;;;12.10;3.15;;;;;;;9.64;63.02;98382.97;10468877;28;20111;-70
2023/05/25 00:14:14;;;;;;;11.18;3.78;;;;;;;9.66;63.29;98382.44;10469628;28;20041;-70
2023/05/25 00:19:36;;;;;;;10.98;3.38;;;;;;;9.64;63.18;98382.25;10505909;28;20124;-70
2023/05/25 00:24:57;;;;;;;20.33;4.55;;;;;;;9.66;63.40;98383.16;10476962;28;20124;-71
2023/05/25 00:30:17;;;;;;;11.98;4.22;;;;;;;9.65;63.33;98384.47;10490499;28;20078;-71
2023/05/25 00:35:38;;;;;;;10.88;4.45;;;;;;;9.60;63.58;98382.66;10462749;28;20173;-70
2023/05/25 00:40:59;;;;;;;10.45;3.40;;;;;;;9.53;63.32;98379.94;10489964;28;20071;-71
2023/05/25 00:46:19;;;;;;;16.60;4.30;;;;;;;9.44;64.06;98370.91;10475815;28;20125;-71
2023/05/25 00:51:40;;;;;;;11.02;3.83;;;;;;;9.43;64.20;98379.84;10461674;28;20123;-71
2023/05/25 00:57:03;;;;;;;10.98;3.97;;;;;;;9.37;64.10;98379.38;10475553;28;20487;-71
2023/05/25 01:02:24;;;;;;;14.90;4.63;;;;;;;9.31;64.44;98376.09;10489581;28;20055;-71
2023/05/25 01:07:45;;;;;;;11.30;4.13;;;;;;;9.29;64.83;98384.28;10474992;28;20402;-71
2023/05/25 01:13:06;;;;;;;9.07;3.53;;;;;;;9.26;64.71;98379.81;10460851;28;20120;-71
2023/05/25 01:18:28;;;;;;;11.38;3.88;;;;;;;9.21;65.46;98381.56;10474801;28;20078;-71
2023/05/25 01:24:07;;;;;;;10.88;3.42;;;;;;;9.18;64.85;98388.28;10488435;28;20124;-71
2023/05/25 01:29:28;;;;;;;11.95;3.97;;;;;;;9.12;65.77;98380.16;10474037;28;20127;-71
2023/05/25 01:34:48;;;;;;;11.30;3.90;;;;;;;9.07;65.29;98380.38;10473898;28;20183;-71
2023/05/25 01:40:10;;;;;;;12.00;3.90;;;;;;;9.04;65.77;98381.50;10460966;28;20069;-71
2023/05/25 01:45:31;;;;;;;13.15;3.40;;;;;;;9.00;65.74;98383.97;10487382;28;20124;-70
2023/05/25 01:51:00;;;;;;;16.27;4.20;;;;;;;8.93;65.91;98393.84;10473442;28;20112;-71
2023/05/25 01:56:22;;;;;;;13.60;3.60;;;;;;;8.88;66.03;98395.56;10473413;28;20090;-71
2023/05/25 02:01:43;;;;;;;11.32;3.95;;;;;;;8.87;65.87;98394.06;10445409;28;20170;-71
2023/05/25 02:07:03;;;;;;;10.63;3.65;;;;;;;8.84;66.10;98384.06;10458579;28;20163;-71
2023/05/25 02:12:24;;;;;;;16.05;4.03;;;;;;;8.82;66.06;98378.34;10486330;28;20068;-71
2023/05/25 02:17:45;;;;;;;15.32;4.00;;;;;;;8.82;66.28;98378.34;10472169;28;20170;-71
2023/05/25 02:23:05;;;;;;;14.75;3.75;;;;;;;8.76;66.43;98397.31;10472154;28;20043;-71
2023/05/25 02:28:26;;;;;;;11.95;3.35;;;;;;;8.72;66.49;98399.75;10485829;28;20170;-70
2023/05/25 02:33:47;;;;;;;11.02;3.28;;;;;;;8.66;66.57;98398.50;10500828;28;20124;-71
2023/05/25 02:39:09;;;;;;;9.85;3.20;;;;;;;8.62;66.66;98398.16;10484885;28;20179;-71
2023/05/25 02:44:30;;;;;;;11.65;3.17;;;;;;;8.65;67.14;98411.69;10471569;28;20120;-70
2023/05/25 02:49:51;;;;;;;12.85;3.53;;;;;;;8.61;66.89;98414.13;10470829;28;20071;-71
2023/05/25 02:55:13;;;;;;;14.00;3.60;;;;;;;8.63;67.28;98430.25;10470964;28;20040;-71
2023/05/25 03:00:36;;;;;;;16.60;3.67;;;;;;;8.63;67.24;98419.84;10470682;28;20115;-71
2023/05/25 03:05:57;;;;;;;13.98;3.65;;;;;;;8.62;67.00;98426.72;10470111;28;20468;-71
2023/05/25 03:11:17;;;;;;;8.13;3.38;;;;;;;8.66;67.04;98429.84;10470312;28;20104;-71
2023/05/25 03:16:39;;;;;;;15.68;3.33;;;;;;;8.72;67.34;98416.47;10469935;28;20128;-71
2023/05/25 03:22:01;;;;;;;9.88;3.42;;;;;;;8.85;67.34;98410.59;10469592;28;20123;-71
2023/05/25 03:27:23;;;;;;;10.83;3.40;;;;;;;8.97;67.19;98410.16;10483197;28;20064;-71
2023/05/25 03:32:45;;;;;;;13.70;3.47;;;;;;;9.07;66.93;98420.13;10483224;28;20111;-71
2023/05/25 03:38:05;;;;;;;10.85;3.40;;;;;;;9.15;67.07;98434.69;10441761;28;20534;-71
2023/05/25 03:43:26;;;;;;;13.02;4.10;;;;;;;9.29;66.65;98431.63;10498087;28;20120;-71
2023/05/25 03:48:47;;;;;;;11.70;3.53;;;;;;;9.41;66.83;98446.56;10469115;28;20120;-71
2023/05/25 03:54:08;;;;;;;9.73;3.58;;;;;;;9.53;66.69;98452.41;10454428;28;20120;-71
2023/05/25 03:59:29;;;;;;;10.20;3.13;;;;;;;9.69;66.57;98445.38;10455153;28;20469;-71
2023/05/25 04:04:52;;;;;;;8.68;3.03;;;;;;;9.88;66.44;98451.13;10454714;28;20119;-71
2023/05/25 04:10:13;;;;;;;9.88;3.05;;;;;;;10.12;65.92;98459.97;10482310;28;20530;-71
2023/05/25 04:15:34;;;;;;;9.70;3.05;;;;;;;10.29;65.90;98471.16;10482265;28;20110;-71
2023/05/25 04:21:00;;;;;;;13.40;3.92;;;;;;;10.49;65.23;98458.81;10469026;28;20120;-71
2023/05/25 04:26:21;;;;;;;11.20;3.50;;;;;;;10.76;64.76;98467.22;10468069;28;20124;-71
2023/05/25 04:31:46;;;;;;;12.50;3.55;;;;;;;10.89;64.71;98466.84;10455136;28;20056;-71
2023/05/25 04:37:07;;;;;;;12.57;3.45;;;;;;;11.21;64.27;98472.72;10482196;28;20465;-71
2023/05/25 04:42:30;;;;;;;10.38;3.13;;;;;;;11.48;64.07;98467.78;10481331;28;20120;-71
2023/05/25 04:47:51;;;;;;;15.23;3.95;;;;;;;11.73;62.91;98464.75;10454028;28;20452;-71
2023/05/25 04:53:12;;;;;;;13.65;3.85;;;;;;;12.25;63.12;98472.78;10467439;28;20186;-70
2023/05/25 04:58:33;;;;;;;11.68;3.80;;;;;;;12.61;61.50;98471.84;10467589;28;20075;-71
2023/05/25 05:03:54;;;;;;;13.23;3.75;;;;;;;12.95;60.46;98472.81;10458719;28;20132;-71
2023/05/25 05:09:16;;;;;;;10.70;3.25;;;;;;;13.26;59.76;98472.88;10488419;28;20064;-71
2023/05/25 05:14:37;;;;;;;9.15;3.35;;;;;;;13.55;58.54;98486.75;10474824;28;20091;-71
2023/05/25 05:19:59;;;;;;;9.98;3.63;;;;;;;13.85;57.00;98486.00;10474390;28;20111;-71
2023/05/25 05:25:20;;;;;;;12.10;3.58;;;;;;;14.11;55.67;98484.19;10474328;28;20067;-71
2023/05/25 05:30:40;;;;;;;9.95;3.15;;;;;;;14.44;54.52;98487.00;10473954;28;20116;-71
2023/05/25 05:36:03;;;;;;;16.02;3.80;;;;;;;14.87;53.07;98498.91;10460751;28;20036;-71
2023/05/25 05:41:24;;;;;;;10.80;3.63;;;;;;;15.31;51.19;98496.66;10460485;28;20513;-71
2023/05/25 05:46:45;;;;;;;11.63;3.22;;;;;;;15.59;50.44;98498.34;10487240;28;20084;-71
2023/05/25 05:52:09;;;;;;;10.80;2.85;;;;;;;15.89;49.58;98510.72;10473517;28;20139;-71
2023/05/25 05:57:31;;;;;;;11.43;3.58;;;;;;;16.43;48.33;98511.69;10487601;28;20147;-70
2023/05/25 06:02:52;;;;;;;9.60;3.30;;;;;;;16.65;46.72;98512.94;10473233;28;20064;-71
2023/05/25 06:08:17;;;;;;;13.18;2.92;;;;;;;17.23;46.27;98528.09;10486209;28;20497;-71
2023/05/25 06:13:38;;;;;;;10.68;3.35;;;;;;;17.65;44.26;98524.69;10485448;28;20116;-71
2023/05/25 06:18:59;;;;;;;7.10;2.60;;;;;;;17.78;43.42;98528.91;10472086;28;20119;-71
2023/05/25 06:24:20;;;;;;;10.65;3.03;;;;;;;18.00;42.67;98526.50;10471909;28;20127;-71
2023/05/25 06:29:40;;;;;;;7.15;2.80;;;;;;;18.24;41.22;98533.38;10500790;28;20071;-71
2023/05/25 06:35:02;;;;;;;13.07;3.38;;;;;;;18.50;40.48;98525.44;10471408;28;20059;-71
2023/05/25 06:40:23;;;;;;;8.35;2.80;;;;;;;18.80;39.45;98531.13;10471710;28;20567;-70
2023/05/25 06:45:43;;;;;;;8.05;2.80;;;;;;;18.80;39.87;98523.38;10457038;28;20120;-71
2023/05/25 06:51:04;;;;;;;9.88;2.70;;;;;;;19.54;38.86;98527.50;10484592;28;20162;-71
2023/05/25 06:56:26;;;;;;;10.48;2.60;;;;;;;19.97;38.73;98532.19;10484331;28;20068;-70
2023/05/25 07:01:47;;;;;;;12.25;3.45;;;;;;;20.22;36.26;98545.31;10498964;28;20127;-71
2023/05/25 07:07:08;;;;;;;10.50;2.95;;;;;;;19.73;36.24;98532.63;10456188;28;20128;-71
2023/05/25 07:12:29;;;;;;;6.93;2.72;;;;;;;20.06;36.53;98531.19;10483906;28;20121;-71
2023/05/25 07:17:49;;;;;;;12.45;3.17;;;;;;;19.95;36.62;98532.84;10469761;28;20171;-71
2023/05/25 07:23:10;;;;;;;11.48;3.10;;;;;;;20.54;36.52;98545.97;10498107;28;20071;-70
2023/05/25 07:28:31;;;;;;;42.58;4.95;;;;;;;21.07;35.68;98533.88;10469123;28;20561;-71
2023/05/25 07:33:54;;;;;;;8.90;3.05;;;;;;;20.85;34.57;98530.91;10483088;28;20380;-71
2023/05/25 07:39:14;;;;;;;9.65;3.10;;;;;;;21.34;34.57;98538.50;10469564;28;20075;-71
2023/05/25 07:44:35;;;;;;;13.80;3.85;;;;;;;21.73;33.99;98537.81;10468655;28;20075;-70
2023/05/25 07:49:56;;;;;;;13.25;3.67;;;;;;;22.25;33.84;98546.75;10454690;28;20147;-71
2023/05/25 07:55:17;;;;;;;23.60;4.32;;;;;;;22.23;32.98;98538.88;10482618;28;20120;-71
2023/05/25 08:00:38;;;;;;;15.55;4.70;;;;;;;22.41;32.42;98543.72;10482373;28;20124;-71
2023/05/25 08:05:59;;;;;;;12.25;3.45;;;;;;;22.20;32.77;98537.34;10497011;28;20541;-71
2023/05/25 08:11:22;;;;;;;8.68;3.08;;;;;;;22.39;32.91;98557.84;10454441;28;20051;-71
2023/05/25 08:16:43;;;;;;;8.63;3.03;;;;;;;23.18;31.88;98554.03;10496888;28;20474;-71
2023/05/25 08:22:04;;;;;;;8.68;2.90;;;;;;;23.43;31.31;98559.06;10468247;28;20117;-71
2023/05/25 08:27:25;;;;;;;8.20;3.33;;;;;;;23.91;30.80;98551.19;10481971;28;20043;-71
2023/05/25 08:32:46;;;;;;;7.18;2.75;;;;;;;23.48;30.18;98540.69;10468435;28;20041;-70
2023/05/25 08:38:07;;;;;;;7.40;3.08;;;;;;;23.54;30.90;98543.72;10471564;28;20056;-71
2023/05/25 08:43:29;;;;;;;10.02;2.97;;;;;;;23.51;30.26;98538.63;10462087;28;20048;-71
2023/05/25 08:48:50;;;;;;;9.23;3.20;;;;;;;23.83;29.65;98541.69;10475938;28;20468;-71
2023/05/25 08:54:12;;;;;;;9.20;2.90;;;;;;;23.49;29.69;98535.72;10475330;28;20044;-71
2023/05/25 09:00:02;;;;;;;11.30;3.33;;;;;;;24.76;29.01;98527.00;10475645;28;20119;-70
2023/05/25 09:05:24;;;;;;;7.57;2.90;;;;;;;24.99;27.33;98541.81;10489002;28;20048;-70
2023/05/25 09:10:45;;;;;;;7.35;2.13;;;;;;;24.39;27.92;98533.22;10475019;28;20407;-71
2023/05/25 09:16:06;;;;;;;7.20;2.65;;;;;;;25.40;28.03;98549.91;10488597;28;20041;-71
2023/05/25 09:21:27;;;;;;;13.32;2.80;;;;;;;25.85;26.29;98542.28;10474618;28;20041;-71
2023/05/25 09:26:48;;;;;;;7.65;2.58;;;;;;;25.03;26.78;98545.53;10474761;28;20151;-71
2023/05/25 09:32:10;;;;;;;8.60;2.58;;;;;;;26.14;26.61;98539.94;10502912;28;20048;-70
2023/05/25 09:37:31;;;;;;;10.50;3.30;;;;;;;26.07;26.12;98539.13;10487965;28;20460;-71
2023/05/25 09:42:52;;;;;;;7.63;3.00;;;;;;;26.34;25.88;98531.72;10473724;28;20047;-71
2023/05/25 09:48:14;;;;;;;9.47;3.13;;;;;;;26.19;25.39;98544.34;10486057;28;20044;-71
2023/05/25 09:53:35;;;;;;;8.27;2.72;;;;;;;25.52;25.44;98535.16;10487378;28;20047;-71
2023/05/25 09:58:57;;;;;;;8.63;2.67;;;;;;;25.43;25.88;98538.53;10473121;28;20048;-71
2023/05/25 10:04:18;;;;;;;7.20;2.40;;;;;;;25.34;25.99;98532.63;10472548;28;20441;-71
2023/05/25 10:09:43;;;;;;;11.13;2.83;;;;;;;25.50;25.66;98545.81;10486311;28;20040;-71
2023/05/25 10:15:05;;;;;;;6.68;2.60;;;;;;;25.06;26.06;98532.00;10472651;28;20037;-71
2023/05/25 10:20:26;;;;;;;7.63;2.47;;;;;;;25.18;26.47;98535.13;10471902;28;20064;-71
2023/05/25 10:25:52;;;;;;;6.85;2.17;;;;;;;25.48;26.13;98529.38;10500554;28;20048;-71
2023/05/25 10:31:14;;;;;;;6.97;2.17;;;;;;;26.27;25.38;98526.59;10444135;28;20040;-71
2023/05/25 10:36:35;;;;;;;6.78;2.50;;;;;;;25.50;24.87;98525.81;10484897;28;20119;-71
2023/05/25 10:41:56;;;;;;;8.43;2.13;;;;;;;25.03;25.48;98511.25;10500089;28;20045;-71
2023/05/25 10:47:18;;;;;;;6.33;2.37;;;;;;;25.91;25.43;98505.22;10470914;28;20049;-71
2023/05/25 10:52:39;;;;;;;5.80;2.83;;;;;;;25.55;24.41;98510.91;10484760;28;20071;-71
2023/05/25 10:58:08;;;;;;;8.52;2.67;;;;;;;25.15;25.14;98499.38;10470534;28;20111;-71
2023/05/25 11:03:55;;;;;;;6.18;2.15;;;;;;;25.64;25.32;98498.25;10483950;28;20052;-70
2023/05/25 11:09:23;;;;;;;8.20;2.17;;;;;;;26.19;24.55;98499.28;10483999;28;20051;-71
2023/05/25 11:14:44;;;;;;;7.00;2.90;;;;;;;26.03;24.90;98501.13;10456228;28;20052;-71
2023/05/25 11:20:07;;;;;;;6.18;2.42;;;;;;;26.52;24.07;98494.84;10469774;28;20471;-71
2023/05/25 11:25:35;;;;;;;8.90;2.60;;;;;;;26.05;23.41;98486.84;10470082;28;20040;-71
2023/05/25 11:30:58;;;;;;;6.05;2.65;;;;;;;25.61;24.40;98478.88;10469188;28;20044;-71
2023/05/25 11:36:20;;;;;;;7.78;2.70;;;;;;;25.42;25.13;98485.63;10469668;28;20040;-71
2023/05/25 11:41:46;;;;;;;7.78;2.92;;;;;;;25.68;24.07;98489.03;10455511;28;20102;-71
2023/05/25 11:47:17;;;;;;;8.15;2.60;;;;;;;25.21;24.29;98479.50;10455449;28;20486;-71
2023/05/25 11:52:39;;;;;;;9.15;2.95;;;;;;;25.32;23.85;98472.59;10497665;28;20086;-70
2023/05/25 11:58:00;;;;;;;6.30;3.05;;;;;;;25.22;24.45;98465.94;10482491;28;20045;-71
2023/05/25 12:03:30;;;;;;;6.85;2.45;;;;;;;25.39;24.39;98471.31;10481932;28;20064;-71
2023/05/25 12:08:52;;;;;;;6.53;2.45;;;;;;;25.57;23.78;98467.34;10454980;28;20123;-71
2023/05/25 12:14:14;;;;;;;;;;;;;;;25.33;24.03;98465.47;10454250;28;20040;-71
2023/05/25 12:19:35;;;;;;;6.85;2.58;;;;;;;25.00;24.41;98460.47;10497175;28;19920;-71
2023/05/25 12:24:56;;;;;;;6.47;2.33;;;;;;;25.27;24.20;98461.75;10468235;28;20111;-71
2023/05/25 12:30:18;;;;;;;7.75;2.97;;;;;;;25.24;24.54;98455.28;10467944;28;20041;-71
2023/05/25 12:35:46;;;;;;;5.50;2.88;;;;;;;25.02;24.19;98451.97;10496823;28;20448;-71
2023/05/25 12:41:07;;;;;;;8.10;3.28;;;;;;;24.73;24.85;98445.59;10467916;28;20079;-71
2023/05/25 12:46:28;;;;;;;7.95;2.85;;;;;;;24.41;25.82;98450.53;10496841;28;20041;-71
2023/05/25 12:51:49;;;;;;;10.75;2.83;;;;;;;24.22;26.93;98446.47;10481233;28;20158;-71
2023/05/25 12:57:15;;;;;;;7.43;2.75;;;;;;;24.39;26.84;98430.50;10467498;28;20041;-71
2023/05/25 13:02:36;;;;;;;7.78;2.85;;;;;;;24.52;26.20;98440.84;10480993;28;20060;-71
2023/05/25 13:07:58;;;;;;;5.63;2.60;;;;;;;25.08;26.02;98444.22;10480841;28;20451;-72
2023/05/25 13:13:19;;;;;;;6.97;3.13;;;;;;;25.00;25.91;98446.91;10480948;28;20398;-71
2023/05/25 13:18:41;;;;;;;9.37;3.17;;;;;;;24.63;26.45;98431.09;10467144;28;20044;-71
2023/05/25 13:24:02;;;;;;;5.70;2.53;;;;;;;24.59;27.07;98433.84;10484079;28;20123;-71
2023/05/25 13:29:24;;;;;;;8.07;3.13;;;;;;;24.90;26.54;98428.81;10474250;28;20041;-71
2023/05/25 13:34:46;;;;;;;5.78;2.75;;;;;;;24.74;26.22;98423.47;10502747;28;20463;-71
2023/05/25 13:40:07;;;;;;;7.35;2.70;;;;;;;24.93;26.24;98410.34;10502469;28;20119;-71
2023/05/25 13:45:28;;;;;;;7.22;2.45;;;;;;;24.92;26.65;98418.16;10473523;28;20044;-71
2023/05/25 13:50:50;;;;;;;6.40;2.80;;;;;;;24.89;26.48;98410.22;10487132;28;20048;-71
2023/05/25 13:56:11;;;;;;;7.10;2.70;;;;;;;24.37;26.63;98414.09;10472569;28;20048;-71
2023/05/25 14:01:33;;;;;;;6.88;2.83;;;;;;;24.07;27.18;98414.03;10486020;28;20347;-71
2023/05/25 14:06:55;;;;;;;6.07;3.05;;;;;;;23.87;27.25;98407.84;10486400;28;20401;-71
2023/05/25 14:12:16;;;;;;;5.70;2.70;;;;;;;24.14;27.76;98407.09;10455483;28;20056;-71
2023/05/25 14:17:38;;;;;;;6.22;2.70;;;;;;;23.90;27.45;98401.50;10485524;28;20282;-71
2023/05/25 14:23:00;;;;;;;8.02;2.72;;;;;;;23.58;27.82;98401.38;10472064;28;20063;-71
2023/05/25 14:28:21;;;;;;;10.87;2.93;;;;;;;23.59;28.23;98388.59;10485678;28;20068;-71
2023/05/25 14:33:43;;;;;;;5.25;2.47;;;;;;;23.46;28.73;98395.34;10499572;28;20052;-71
2023/05/25 14:39:04;;;;;;;6.25;2.63;;;;;;;23.55;28.88;98397.03;10484828;28;20086;-71
2023/05/25 14:44:25;;;;;;;6.95;2.50;;;;;;;23.64;28.89;98390.16;10471314;28;20072;-71
2023/05/25 14:49:46;;;;;;;7.30;2.70;;;;;;;23.60;29.03;98387.19;10470670;28;20452;-71
2023/05/25 14:55:08;;;;;;;5.80;2.60;;;;;;;23.20;29.69;98397.47;10470832;28;20036;-71
2023/05/25 15:00:29;;;;;;;7.18;2.95;;;;;;;22.94;30.56;98394.59;10484362;28;20044;-71
2023/05/25 15:05:50;;;;;;;6.90;2.45;;;;;;;22.98;30.78;98374.78;10483839;28;20171;-70
2023/05/25 15:11:11;;;;;;;6.78;3.03;;;;;;;23.21;30.63;98381.84;10470173;28;20064;-71
2023/05/25 15:16:32;;;;;;;6.70;2.75;;;;;;;23.11;30.60;98385.13;10456418;28;20036;-71
2023/05/25 15:21:53;;;;;;;11.45;2.92;;;;;;;22.86;30.94;98380.84;10483776;28;20056;-71
2023/05/25 15:27:14;;;;;;;7.40;2.83;;;;;;;22.83;31.29;98367.94;10483664;28;20094;-71
2023/05/25 15:32:35;;;;;;;6.50;2.70;;;;;;;22.67;31.52;98373.84;10469314;28;20041;-70
2023/05/25 15:37:59;;;;;;;6.35;2.58;;;;;;;22.52;31.96;98360.63;10469407;28;20509;-70
2023/05/25 15:43:21;;;;;;;6.28;2.80;;;;;;;22.37;32.35;98359.44;10470058;28;20048;-70
2023/05/25 15:48:42;;;;;;;9.63;3.50;;;;;;;22.23;32.77;98364.69;10482694;28;20036;-70
2023/05/25 15:54:02;;;;;;;7.50;2.55;;;;;;;22.24;32.92;98372.56;10482844;28;20041;-71
2023/05/25 15:59:23;;;;;;;6.82;2.90;;;;;;;22.13;33.04;98372.91;10482403;28;20059;-71
2023/05/25 16:04:43;;;;;;;8.63;3.10;;;;;;;22.02;33.14;98368.25;10497066;28;20060;-71
2023/05/25 16:10:05;;;;;;;5.50;2.60;;;;;;;21.93;33.33;98367.28;10482094;28;20044;-71
2023/05/25 16:15:26;;;;;;;8.30;2.92;;;;;;;21.87;33.46;98362.09;10482202;28;20067;-71
2023/05/25 16:20:47;;;;;;;8.57;3.00;;;;;;;21.66;33.66;98366.38;10454333;28;20040;-71
2023/05/25 16:26:08;;;;;;;7.05;3.03;;;;;;;21.66;33.90;98359.97;10468409;28;20448;-71
2023/05/25 16:31:30;;;;;;;7.38;4.07;;;;;;;21.63;34.04;98358.47;10481862;28;20040;-71
2023/05/25 16:36:50;;;;;;;7.15;2.65;;;;;;;21.65;33.97;98347.91;10481807;28;20048;-70
2023/05/25 16:42:11;;;;;;;4.50;2.58;;;;;;;21.64;33.72;98351.41;10467894;28;20044;-71
2023/05/25 16:47:32;;;;;;;5.80;2.55;;;;;;;21.61;33.93;98355.53;10481546;28;20045;-71
2023/05/25 16:52:53;;;;;;;4.82;2.40;;;;;;;21.57;33.73;98356.13;10496242;28;20056;-71
2023/05/25 16:58:15;;;;;;;7.93;2.60;;;;;;;21.39;33.38;98350.56;10483415;28;20380;-71
2023/05/25 17:03:35;;;;;;;6.22;2.92;;;;;;;21.23;33.71;98361.34;10488926;28;20048;-71
2023/05/25 17:08:57;;;;;;;5.18;2.33;;;;;;;21.00;33.78;98351.28;10475431;28;20068;-71
2023/05/25 17:14:18;;;;;;;7.35;2.33;;;;;;;20.67;34.25;98357.88;10474710;28;20041;-70
2023/05/25 17:19:40;;;;;;;6.82;2.55;;;;;;;20.50;34.35;98355.81;10460868;28;20118;-70
2023/05/25 17:25:00;;;;;;;6.38;2.08;;;;;;;20.34;34.70;98360.81;10474394;28;20490;-70
2023/05/25 17:30:21;;;;;;;6.47;2.60;;;;;;;20.21;34.80;98366.03;10474077;28;20048;-71
2023/05/25 17:35:42;;;;;;;7.65;2.40;;;;;;;20.08;35.38;98366.94;10487710;28;20493;-71
2023/05/25 17:41:03;;;;;;;6.15;2.88;;;;;;;19.95;34.82;98367.78;10473843;28;20068;-71
2023/05/25 17:46:24;;;;;;;6.03;2.50;;;;;;;19.79;35.46;98358.66;10473681;28;20044;-70
2023/05/25 17:51:45;;;;;;;6.90;2.58;;;;;;;19.59;35.67;98367.75;10459741;28;20048;-70
2023/05/25 17:57:06;;;;;;;6.20;2.45;;;;;;;19.32;36.12;98368.00;10486768;28;20100;-70
2023/05/25 18:02:28;;;;;;;5.18;2.58;;;;;;;19.12;36.04;98371.41;10486580;28;20068;-71
2023/05/25 18:07:50;;;;;;;7.22;1.85;;;;;;;18.94;36.30;98379.06;10473136;28;20044;-70
2023/05/25 18:13:10;;;;;;;5.75;2.47;;;;;;;18.77;36.25;98376.88;10500324;28;20098;-70
2023/05/25 18:18:31;;;;;;;5.65;2.60;;;;;;;18.65;36.24;98377.06;10472072;28;20102;-70
2023/05/25 18:23:52;;;;;;;5.85;2.22;;;;;;;18.48;36.58;98386.13;10472578;28;20540;-70
2023/05/25 18:29:13;;;;;;;6.25;2.47;;;;;;;18.32;37.15;98383.25;10485778;28;20458;-69
2023/05/25 18:34:33;;;;;;;3.95;1.70;;;;;;;18.14;37.05;98382.38;10485708;28;20040;-70
2023/05/25 18:39:54;;;;;;;5.35;2.22;;;;;;;18.00;37.41;98397.28;10458102;28;20075;-71
2023/05/25 18:45:15;;;;;;;5.30;1.80;;;;;;;17.82;37.43;98392.84;10457606;28;20098;-71
2023/05/25 18:50:37;;;;;;;7.13;2.08;;;;;;;17.65;37.67;98399.75;10470640;28;20036;-71
2023/05/25 18:55:59;;;;;;;6.03;2.23;;;;;;;17.48;37.88;98403.13;10457878;28;20052;-71
2023/05/25 19:01:20;;;;;;;4.43;1.95;;;;;;;17.34;37.88;98412.31;10484837;28;20048;-71
2023/05/25 19:06:41;;;;;;;5.30;2.38;;;;;;;17.17;38.39;98410.00;10470265;28;20406;-71
2023/05/25 19:12:03;;;;;;;6.25;2.22;;;;;;;17.02;38.63;98428.28;10484121;28;20041;-71
2023/05/25 19:17:24;;;;;;;4.72;1.80;;;;;;;16.85;39.00;98417.50;10483590;28;20479;-71
2023/05/25 19:22:45;;;;;;;5.85;2.47;;;;;;;16.71;39.12;98425.91;10483642;28;20044;-70
2023/05/25 19:28:06;;;;;;;5.13;2.17;;;;;;;16.58;39.62;98441.38;10469493;28;20094;-71
2023/05/25 19:33:27;;;;;;;5.75;2.55;;;;;;;16.49;39.84;98444.38;10483413;28;20044;-70
2023/05/25 19:38:47;;;;;;;5.05;2.40;;;;;;;16.38;40.20;98442.34;10498131;28;20111;-70
2023/05/25 19:44:09;;;;;;;6.57;2.60;;;;;;;16.24;40.45;98439.50;10455296;28;20064;-70
2023/05/25 19:49:30;;;;;;;6.63;2.45;;;;;;;16.11;41.03;98443.69;10469112;28;20051;-70
2023/05/25 19:54:51;;;;;;;5.97;2.55;;;;;;;16.02;41.44;98447.41;10482744;28;20048;-70
2023/05/25 20:00:12;;;;;;;9.27;3.00;;;;;;;15.98;41.95;98455.59;10482890;28;20059;-70
2023/05/25 20:05:45;;;;;;;6.50;2.97;;;;;;;15.90;41.93;98446.69;10484256;28;20119;-70
2023/05/25 20:11:06;;;;;;;7.57;2.63;;;;;;;15.76;42.54;98451.50;10497501;28;20082;-70
2023/05/25 20:16:27;;;;;;;6.28;2.92;;;;;;;15.66;42.83;98452.38;10468670;28;20051;-70
2023/05/25 20:21:48;;;;;;;5.50;2.97;;;;;;;15.60;43.39;98460.47;10482427;28;20120;-70
2023/05/25 20:27:08;;;;;;;5.50;2.83;;;;;;;15.49;43.73;98458.38;10468401;28;20068;-70
2023/05/25 20:32:29;;;;;;;5.63;3.10;;;;;;;15.38;44.03;98462.66;10483039;28;20162;-70
2023/05/25 20:37:50;;;;;;;7.95;3.00;;;;;;;15.35;44.70;98474.41;10490772;28;20068;-70
2023/05/25 20:43:10;;;;;;;6.65;3.20;;;;;;;15.27;44.97;98479.53;10476321;28;20465;-70
2023/05/25 20:48:33;;;;;;;8.32;3.38;;;;;;;15.18;45.32;98487.47;10476653;28;20040;-70
2023/05/25 20:53:55;;;;;;;9.23;3.08;;;;;;;15.12;45.36;98489.91;10490334;28;20116;-70
2023/05/25 20:59:16;;;;;;;5.30;2.85;;;;;;;15.01;46.21;98487.81;10489741;28;20124;-70
2023/05/25 21:04:36;;;;;;;6.35;3.47;;;;;;;14.91;46.53;98486.44;10475617;28;20124;-70
2023/05/25 21:10:00;;;;;;;8.30;3.60;;;;;;;14.85;46.97;98483.97;10475145;28;20116;-70
2023/05/25 21:15:21;;;;;;;;;;;;;;;14.78;48.51;98488.50;10490142;28;20119;-70
2023/05/25 21:20:42;;;;;;;7.47;3.47;;;;;;;14.71;47.57;98497.16;10503754;28;20009;-70
2023/05/25 21:26:03;;;;;;;5.97;2.80;;;;;;;14.62;48.18;98493.09;10474784;28;20158;-70
2023/05/25 21:31:24;;;;;;;9.93;3.22;;;;;;;14.57;48.41;98485.75;10503440;28;20068;-70
2023/05/25 21:36:44;;;;;;;8.23;3.20;;;;;;;14.50;48.66;98487.44;10474094;28;20514;-70
2023/05/25 21:42:05;;;;;;;7.57;2.97;;;;;;;14.41;49.01;98496.66;10474149;28;20470;-70
2023/05/25 21:47:26;;;;;;;7.18;2.90;;;;;;;14.37;49.32;98510.44;10473595;28;20115;-70
2023/05/25 21:52:46;;;;;;;11.65;3.58;;;;;;;14.31;50.00;98510.06;10502717;28;20072;-70
2023/05/25 21:58:07;;;;;;;7.10;3.58;;;;;;;14.29;50.22;98504.31;10473302;28;20124;-70
2023/05/25 22:03:28;;;;;;;8.85;3.22;;;;;;;14.20;50.29;98519.88;10487191;28;20055;-70
2023/05/25 22:08:48;;;;;;;10.40;3.10;;;;;;;14.13;51.00;98518.00;10487174;28;20119;-70
2023/05/25 22:14:09;;;;;;;7.72;3.08;;;;;;;14.08;50.87;98526.75;10501703;28;20143;-70
2023/05/25 22:19:30;;;;;;;11.63;3.35;;;;;;;14.01;51.33;98520.75;10458856;28;20124;-70
2023/05/25 22:24:50;;;;;;;14.48;3.50;;;;;;;13.96;51.44;98530.22;10472435;28;20121;-70
2023/05/25 22:30:11;;;;;;;8.85;3.10;;;;;;;13.88;51.86;98535.28;10472329;28;20130;-70
2023/05/25 22:35:33;;;;;;;9.27;3.20;;;;;;;13.81;52.04;98536.25;10486167;28;20044;-70
2023/05/25 22:40:54;;;;;;;9.32;3.15;;;;;;;13.75;52.30;98533.03;10458302;28;20044;-71
2023/05/25 22:46:16;;;;;;;6.72;3.55;;;;;;;13.68;52.60;98534.66;10485448;28;20045;-70
2023/05/25 22:51:36;;;;;;;8.05;2.92;;;;;;;13.64;52.91;98531.59;10471069;28;20119;-70
2023/05/25 22:56:57;;;;;;;7.38;3.28;;;;;;;13.60;53.26;98539.00;10499359;28;20509;-70
2023/05/25 23:02:18;;;;;;;6.35;3.10;;;;;;;13.57;53.22;98540.91;10499635;28;20128;-70
2023/05/25 23:07:38;;;;;;;9.60;3.55;;;;;;;13.48;53.62;98538.16;10499361;28;20041;-70
2023/05/25 23:12:59;;;;;;;9.38;3.20;;;;;;;13.43;53.74;98537.91;10456885;28;20467;-71
2023/05/25 23:18:20;;;;;;;11.38;3.50;;;;;;;13.42;54.01;98546.91;10470437;28;20512;-70
2023/05/25 23:23:41;;;;;;;7.63;3.42;;;;;;;13.37;54.29;98542.34;10498736;28;20128;-70
2023/05/25 23:29:02;;;;;;;10.25;3.65;;;;;;;13.35;54.77;98548.53;10469869;28;20045;-70
2023/05/25 23:34:23;;;;;;;8.60;3.33;;;;;;;13.35;54.50;98554.16;10483549;28;20573;-70
2023/05/25 23:39:43;;;;;;;10.68;3.50;;;;;;;13.28;54.69;98545.91;10469733;28;20139;-70
2023/05/25 23:45:06;;;;;;;6.78;3.17;;;;;;;13.31;54.99;98544.72;10483274;28;20120;-70
2023/05/25 23:50:27;;;;;;;10.40;3.53;;;;;;;13.26;55.15;98546.50;10483287;28;20135;-70
2023/05/25 23:55:48;;;;;;;7.20;3.13;;;;;;;13.24;55.29;98548.44;10469090;28;20120;-70
